createdAt,value
2022-10-13T00:03:11.232Z,12.25
2022-10-13T00:08:36.342Z,12.36
2022-10-13T00:14:01.011Z,12.42
2022-10-13T00:19:25.199Z,12.24
2022-10-13T00:24:52.991Z,12.08
2022-10-13T00:30:16.308Z,12.13
2022-10-13T00:35:42.306Z,12.15
2022-10-13T00:41:08.783Z,12.03
2022-10-13T00:46:34.192Z,12.12
2022-10-13T00:51:57.358Z,12.13
2022-10-13T00:57:21.867Z,12.15
2022-10-13T01:02:44.930Z,12.16
2022-10-13T01:08:08.220Z,12.23
2022-10-13T01:13:36.016Z,12.30
2022-10-13T01:19:06.654Z,12.31
2022-10-13T01:24:41.673Z,12.22
2022-10-13T01:30:12.071Z,12.24
2022-10-13T01:35:44.573Z,12.32
2022-10-13T01:41:12.949Z,12.39
2022-10-13T01:46:38.912Z,12.21
2022-10-13T01:52:04.833Z,12.32
2022-10-13T01:57:31.881Z,12.39
2022-10-13T02:03:04.899Z,12.29
2022-10-13T02:08:32.390Z,12.32
2022-10-13T02:14:00.777Z,12.22
2022-10-13T02:19:26.354Z,12.23
2022-10-13T02:24:49.440Z,12.40
2022-10-13T02:30:22.294Z,12.44
2022-10-13T02:35:46.707Z,12.40
2022-10-13T02:41:09.740Z,12.34
2022-10-13T02:46:32.843Z,12.46
2022-10-13T02:51:57.209Z,12.58
2022-10-13T02:57:20.251Z,12.66
2022-10-13T03:02:44.330Z,12.57
2022-10-13T03:08:08.851Z,12.67
2022-10-13T03:13:32.965Z,12.84
2022-10-13T03:19:02.475Z,12.93
2022-10-13T03:24:26.856Z,12.90
2022-10-13T03:29:49.865Z,12.84
2022-10-13T03:35:12.909Z,12.75
2022-10-13T03:40:37.901Z,12.69
2022-10-13T03:46:02.345Z,12.35
2022-10-13T03:51:25.619Z,12.44
2022-10-13T03:56:50.261Z,12.44
2022-10-13T04:02:13.239Z,12.55
2022-10-13T04:07:36.264Z,12.58
2022-10-13T04:13:09.582Z,12.59
2022-10-13T04:18:34.907Z,12.63
2022-10-13T04:23:58.580Z,12.74
2022-10-13T04:29:23.004Z,12.78
2022-10-13T04:34:48.087Z,12.81
2022-10-13T04:40:12.329Z,12.89
2022-10-13T04:45:36.697Z,12.88
2022-10-13T04:51:00.999Z,12.88
2022-10-13T04:56:24.781Z,12.91
2022-10-13T05:01:49.237Z,13.04
2022-10-13T05:07:17.928Z,13.06
2022-10-13T05:12:41.946Z,13.00
2022-10-13T05:18:06.711Z,13.23
2022-10-13T05:23:29.737Z,13.21
2022-10-13T05:28:52.883Z,13.25
2022-10-13T05:34:17.272Z,13.33
2022-10-13T05:39:42.192Z,13.29
2022-10-13T05:45:06.245Z,13.15
2022-10-13T05:50:30.895Z,13.27
2022-10-13T05:55:54.769Z,13.28
2022-10-13T06:01:20.266Z,13.29
2022-10-13T06:06:44.781Z,13.08
2022-10-13T06:12:08.815Z,13.11
2022-10-13T06:17:31.952Z,13.11
2022-10-13T06:22:56.998Z,13.08
2022-10-13T06:28:23.865Z,13.10
2022-10-13T06:33:46.932Z,13.11
2022-10-13T06:39:11.703Z,13.13
2022-10-13T06:44:34.922Z,13.12
2022-10-13T06:49:57.974Z,13.28
2022-10-13T06:55:22.374Z,13.33
2022-10-13T07:00:45.527Z,13.25
2022-10-13T07:06:09.304Z,13.65
2022-10-13T07:11:34.028Z,13.60
2022-10-13T07:16:57.148Z,13.57
2022-10-13T07:22:20.289Z,13.74
2022-10-13T07:27:48.076Z,13.72
2022-10-13T07:33:12.188Z,13.79
2022-10-13T07:38:36.619Z,13.91
2022-10-13T07:44:01.442Z,13.99
2022-10-13T07:49:24.808Z,14.01
2022-10-13T07:54:48.068Z,14.01
2022-10-13T08:00:13.666Z,14.10
2022-10-13T08:05:37.897Z,14.21
2022-10-13T08:11:02.238Z,14.35
2022-10-13T08:16:30.050Z,14.33
2022-10-13T08:21:58.618Z,14.30
2022-10-13T08:27:37.024Z,14.09
2022-10-13T08:33:09.479Z,14.31
2022-10-13T08:38:32.621Z,14.55
2022-10-13T08:44:47.612Z,14.73
2022-10-13T08:49:47.639Z,14.54
2022-10-13T08:55:13.069Z,14.60
2022-10-13T09:00:38.005Z,14.66
2022-10-13T09:06:08.294Z,14.71
2022-10-13T09:11:33.953Z,14.86
2022-10-13T09:16:58.714Z,14.98
2022-10-13T09:22:28.675Z,15.28
2022-10-13T09:27:53.936Z,15.58
2022-10-13T09:33:22.171Z,15.62
2022-10-13T09:39:08.327Z,15.73
2022-10-13T09:44:33.085Z,15.94
2022-10-13T09:50:06.510Z,15.75
2022-10-13T09:55:36.399Z,15.77
2022-10-13T10:01:00.267Z,15.75
2022-10-13T10:06:27.826Z,15.67
2022-10-13T10:11:57.190Z,15.61
2022-10-13T10:17:34.158Z,15.44
2022-10-13T10:23:05.268Z,15.31
2022-10-13T10:28:49.105Z,15.24
2022-10-13T10:34:36.153Z,15.13
2022-10-13T10:40:06.275Z,15.17
2022-10-13T10:45:32.713Z,15.43
2022-10-13T10:50:55.972Z,15.35
2022-10-13T10:56:24.051Z,15.40
2022-10-13T11:02:01.126Z,15.49
2022-10-13T11:07:57.862Z,15.55
2022-10-13T11:13:22.050Z,15.57
2022-10-13T11:19:05.581Z,15.63
2022-10-13T11:24:48.568Z,15.74
2022-10-13T11:30:57.568Z,15.76
2022-10-13T11:36:44.689Z,15.65
2022-10-13T11:42:20.885Z,15.70
2022-10-13T11:48:00.464Z,15.74
2022-10-13T11:53:28.191Z,15.68
2022-10-13T11:58:51.280Z,15.78
2022-10-13T12:04:15.692Z,15.89
2022-10-13T12:09:50.301Z,16.05
2022-10-13T12:15:29.360Z,16.00
2022-10-13T12:20:56.537Z,16.09
2022-10-13T12:26:22.944Z,16.07
2022-10-13T12:31:47.400Z,16.16
2022-10-13T12:37:16.331Z,16.35
2022-10-13T12:42:40.828Z,16.47
2022-10-13T12:48:04.165Z,16.45
2022-10-13T12:53:29.642Z,16.39
2022-10-13T12:58:54.259Z,16.25
2022-10-13T13:04:19.975Z,16.27
2022-10-13T13:09:43.101Z,16.14
2022-10-13T13:15:21.898Z,16.04
2022-10-13T13:20:44.980Z,15.96
2022-10-13T13:26:13.371Z,15.95
2022-10-13T13:31:37.939Z,16.05
2022-10-13T13:37:02.607Z,16.09
2022-10-13T13:42:25.928Z,15.93
2022-10-13T13:47:50.394Z,15.84
2022-10-13T13:53:13.535Z,15.64
2022-10-13T13:58:37.106Z,15.71
2022-10-13T14:04:02.995Z,15.77
2022-10-13T14:09:26.308Z,15.60
2022-10-13T14:14:49.435Z,15.18
2022-10-13T14:20:18.021Z,14.64
2022-10-13T14:25:41.280Z,14.47
2022-10-13T14:31:07.787Z,14.49
2022-10-13T14:36:32.919Z,14.50
2022-10-13T14:41:55.985Z,14.54
2022-10-13T14:47:19.463Z,14.55
2022-10-13T14:52:44.073Z,14.63
2022-10-13T14:58:07.172Z,14.66
2022-10-13T15:03:30.647Z,14.49
2022-10-13T15:08:55.180Z,14.27
2022-10-13T15:14:19.939Z,14.24
2022-10-13T15:19:43.032Z,14.27
2022-10-13T15:25:10.362Z,14.34
2022-10-13T15:30:34.395Z,14.44
2022-10-13T15:36:05.343Z,14.59
2022-10-13T15:41:29.897Z,14.69
2022-10-13T15:47:07.351Z,14.79
2022-10-13T15:52:34.753Z,14.75
2022-10-13T15:57:59.613Z,14.81
2022-10-13T16:03:22.620Z,14.77
2022-10-13T16:08:45.660Z,14.80
2022-10-13T16:14:10.061Z,14.74
2022-10-13T16:19:33.297Z,14.74
2022-10-13T16:24:56.885Z,14.71
2022-10-13T16:30:21.488Z,14.67
2022-10-13T16:35:44.625Z,14.59
2022-10-13T16:41:13.100Z,14.54
2022-10-13T16:46:38.919Z,14.51
2022-10-13T16:52:02.482Z,14.50
2022-10-13T16:57:25.818Z,14.42
2022-10-13T17:02:50.230Z,14.37
2022-10-13T17:08:13.393Z,14.32
2022-10-13T17:13:36.986Z,14.19
2022-10-13T17:19:01.482Z,14.17
2022-10-13T17:24:33.577Z,14.15
2022-10-13T17:29:56.664Z,14.11
2022-10-13T17:35:21.106Z,14.00
2022-10-13T17:40:44.192Z,14.03
2022-10-13T17:46:35.148Z,13.95
2022-10-13T17:51:57.304Z,13.85
2022-10-13T17:57:20.692Z,13.79
2022-10-13T18:02:44.303Z,13.75
2022-10-13T18:08:08.762Z,13.76
2022-10-13T18:13:34.892Z,13.65
2022-10-13T18:18:58.062Z,13.61
2022-10-13T18:24:23.780Z,13.56
2022-10-13T18:29:46.790Z,13.43
2022-10-13T18:35:10.566Z,13.42
2022-10-13T18:40:34.998Z,13.30
2022-10-13T18:46:00.220Z,13.31
2022-10-13T18:51:23.289Z,13.34
2022-10-13T18:56:47.807Z,13.27
2022-10-13T19:02:13.944Z,13.20
2022-10-13T19:07:39.139Z,13.18
2022-10-13T19:13:03.791Z,13.20
2022-10-13T19:18:26.816Z,13.08
2022-10-13T19:23:50.382Z,13.00
2022-10-13T19:29:17.356Z,12.96
2022-10-13T19:34:40.439Z,12.79
2022-10-13T19:40:04.089Z,12.69
2022-10-13T19:45:31.728Z,12.69
2022-10-13T19:50:54.835Z,12.64
2022-10-13T19:56:26.087Z,12.66
2022-10-13T20:01:50.549Z,12.64
2022-10-13T20:07:14.123Z,12.67
2022-10-13T20:12:37.237Z,12.63
2022-10-13T20:18:01.802Z,12.71
2022-10-13T20:23:26.723Z,12.80
2022-10-13T20:28:50.856Z,12.87
2022-10-13T20:34:15.287Z,12.87
2022-10-13T20:39:38.519Z,12.93
2022-10-13T20:45:01.713Z,12.99
2022-10-13T20:50:26.374Z,12.99
2022-10-13T20:55:56.378Z,12.84
2022-10-13T21:01:21.059Z,12.90
2022-10-13T21:06:45.868Z,12.96
2022-10-13T21:12:09.088Z,12.90
2022-10-13T21:17:32.413Z,12.96
2022-10-13T21:22:58.120Z,12.97
2022-10-13T21:28:21.211Z,12.99
2022-10-13T21:33:45.011Z,13.00
2022-10-13T21:39:10.395Z,12.96
2022-10-13T21:44:33.530Z,12.95
2022-10-13T21:49:56.650Z,12.83
2022-10-13T21:55:21.115Z,12.85
2022-10-13T22:00:44.366Z,12.86
2022-10-13T22:06:08.402Z,12.93
2022-10-13T22:11:35.070Z,12.86
2022-10-13T22:17:03.121Z,12.89
2022-10-13T22:22:30.139Z,12.88
2022-10-13T22:27:55.467Z,12.83
2022-10-13T22:33:18.697Z,12.68
2022-10-13T22:38:50.299Z,12.60
2022-10-13T22:44:14.867Z,12.53
2022-10-13T22:49:37.931Z,12.50
2022-10-13T22:55:01.018Z,12.44
2022-10-13T23:00:25.453Z,12.47
2022-10-13T23:05:49.453Z,12.44
2022-10-13T23:11:13.086Z,12.52
2022-10-13T23:16:37.606Z,12.53
2022-10-13T23:22:00.752Z,12.52
2022-10-13T23:27:24.129Z,12.31
2022-10-13T23:32:49.273Z,12.35
2022-10-13T23:38:12.354Z,12.25
2022-10-13T23:43:35.846Z,12.21
2022-10-13T23:49:00.469Z,12.19
2022-10-13T23:54:23.704Z,12.10
2022-10-13T23:59:47.186Z,12.02
